Time;durP1;ratioP1;P1;durP2;ratioP2;P2;SDS_P1;SDS_P2;PMS_P1;PMS_P2;Temp;Humidity;BMP_temperature;BMP_pressure;BME280_temperature;BME280_humidity;BME280_pressure;Samples;Min_cycle;Max_cycle;Signal;HPM_P1;HPM_P2
2021/07/09 00:01:54;;;;;;;14.07;12.63;;;23.40;99.90;;;;;;4993692;28;20503;-80
2021/07/09 00:04:22;;;;;;;15.18;12.98;;;23.40;99.90;;;;;;4992781;28;20018;-79
2021/07/09 00:06:47;;;;;;;14.90;12.55;;;23.50;99.90;;;;;;4991912;28;20392;-79
2021/07/09 00:09:13;;;;;;;15.55;13.85;;;23.50;99.90;;;;;;4993098;28;20030;-80
2021/07/09 00:11:40;;;;;;;15.32;13.05;;;23.60;99.90;;;;;;4993151;28;20034;-80
2021/07/09 00:14:10;;;;;;;19.25;12.45;;;23.60;99.90;;;;;;4991800;28;20054;-80
2021/07/09 00:16:37;;;;;;;14.82;13.32;;;23.60;99.90;;;;;;4991946;28;20019;-80
2021/07/09 00:19:05;;;;;;;14.90;13.43;;;23.60;99.90;;;;;;4991395;28;20035;-80
2021/07/09 00:21:32;;;;;;;15.57;13.77;;;23.50;99.90;;;;;;4991851;28;20025;-80
2021/07/09 00:23:59;;;;;;;16.65;13.57;;;23.50;99.90;;;;;;4991401;28;20073;-80
2021/07/09 00:26:26;;;;;;;13.98;12.57;;;23.50;99.90;;;;;;4991751;28;20061;-80
2021/07/09 00:28:51;;;;;;;15.15;13.50;;;23.40;99.90;;;;;;4991684;28;20114;-80
2021/07/09 00:31:17;;;;;;;16.27;13.38;;;23.40;99.90;;;;;;4992982;28;20101;-80
2021/07/09 00:33:43;;;;;;;15.60;13.93;;;23.40;99.90;;;;;;4991423;28;20038;-80
2021/07/09 00:36:09;;;;;;;16.15;14.45;;;23.40;99.90;;;;;;4992796;28;20025;-80
2021/07/09 00:38:34;;;;;;;16.77;12.88;;;23.40;99.90;;;;;;4991620;28;20089;-80
2021/07/09 00:41:00;;;;;;;18.73;14.40;;;23.30;99.90;;;;;;4991732;28;20018;-80
2021/07/09 00:43:26;;;;;;;17.45;13.57;;;23.40;99.90;;;;;;4991493;28;20035;-80
2021/07/09 00:45:52;;;;;;;17.13;15.32;;;23.40;99.90;;;;;;4993721;28;20026;-80
2021/07/09 00:48:18;;;;;;;20.17;15.77;;;23.30;99.90;;;;;;4997946;28;20113;-80
2021/07/09 00:50:44;;;;;;;15.60;13.98;;;23.30;99.90;;;;;;5015783;28;20117;-80
2021/07/09 00:53:09;;;;;;;20.00;15.43;;;23.30;99.90;;;;;;5015796;28;20087;-80
2021/07/09 00:55:35;;;;;;;18.70;16.70;;;23.30;99.90;;;;;;5035565;28;20068;-80
2021/07/09 00:58:02;;;;;;;17.33;14.85;;;23.30;99.90;;;;;;5017689;28;20025;-79
2021/07/09 01:00:29;;;;;;;17.75;15.35;;;23.40;99.90;;;;;;5017563;28;20022;-80
2021/07/09 01:02:55;;;;;;;18.33;16.35;;;23.40;99.90;;;;;;5017628;28;20033;-78
2021/07/09 01:05:21;;;;;;;20.02;15.55;;;23.50;99.90;;;;;;5017504;28;20057;-80
2021/07/09 01:07:46;;;;;;;17.38;15.38;;;23.40;99.90;;;;;;5015576;28;20472;-80
2021/07/09 01:10:17;;;;;;;17.88;14.98;;;23.40;99.90;;;;;;5015371;28;20049;-81
2021/07/09 01:12:44;;;;;;;17.45;15.48;;;23.40;99.90;;;;;;5015473;28;20037;-81
2021/07/09 01:15:13;;;;;;;21.55;16.83;;;23.40;99.90;;;;;;4997898;28;20036;-81
2021/07/09 01:17:39;;;;;;;20.30;16.40;;;23.40;99.90;;;;;;4997335;28;20030;-81
2021/07/09 01:20:07;;;;;;;20.50;16.77;;;23.40;99.90;;;;;;4995779;28;20417;-81
2021/07/09 01:22:37;;;;;;;19.77;16.55;;;23.30;99.90;;;;;;4995692;28;20017;-80
2021/07/09 01:25:07;;;;;;;18.92;16.15;;;23.30;99.90;;;;;;5014137;28;20036;-80
2021/07/09 01:27:33;;;;;;;19.98;17.70;;;23.20;99.90;;;;;;4997646;28;20022;-80
2021/07/09 01:29:59;;;;;;;18.45;16.33;;;23.20;99.90;;;;;;5015132;28;20054;-80
2021/07/09 01:32:24;;;;;;;19.70;15.48;;;23.10;99.90;;;;;;4997547;28;20057;-80
2021/07/09 01:34:50;;;;;;;22.30;17.55;;;23.00;99.90;;;;;;5015064;28;20022;-80
2021/07/09 01:37:17;;;;;;;20.58;18.40;;;23.00;99.90;;;;;;5013539;28;20554;-80
2021/07/09 01:39:44;;;;;;;21.27;17.65;;;23.00;99.90;;;;;;5013331;28;20141;-80
2021/07/09 01:42:11;;;;;;;22.13;18.00;;;23.00;99.90;;;;;;5013146;28;20021;-80
2021/07/09 01:44:38;;;;;;;21.30;16.80;;;23.00;99.90;;;;;;5012820;28;20064;-80
2021/07/09 01:47:05;;;;;;;21.15;17.50;;;23.00;99.90;;;;;;5010938;28;20113;-80
2021/07/09 01:49:31;;;;;;;19.05;17.05;;;22.90;99.90;;;;;;5014639;28;20375;-81
2021/07/09 01:51:58;;;;;;;20.88;17.85;;;23.00;99.90;;;;;;5032674;28;20037;-81
2021/07/09 01:54:24;;;;;;;19.80;16.23;;;22.90;99.90;;;;;;5014546;28;20534;-80
2021/07/09 01:56:49;;;;;;;19.40;17.25;;;23.00;99.90;;;;;;5032306;28;20025;-81
2021/07/09 01:59:15;;;;;;;23.92;18.25;;;23.00;99.90;;;;;;5034214;28;20059;-80
2021/07/09 02:01:41;;;;;;;19.08;17.08;;;23.00;99.90;;;;;;5034435;28;20032;-81
2021/07/09 02:04:06;;;;;;;20.23;16.95;;;23.00;99.90;;;;;;5001067;28;20029;-80
2021/07/09 02:06:32;;;;;;;21.85;16.52;;;23.00;99.90;;;;;;5014025;28;20033;-81
2021/07/09 02:08:58;;;;;;;25.77;18.67;;;23.10;99.90;;;;;;5012508;28;20018;-80
2021/07/09 02:11:24;;;;;;;22.83;17.58;;;23.10;99.90;;;;;;5012067;28;20400;-80
2021/07/09 02:13:50;;;;;;;23.00;17.50;;;23.10;99.90;;;;;;4996103;28;20022;-80
2021/07/09 02:16:16;;;;;;;23.48;17.77;;;23.00;99.90;;;;;;5014077;28;20057;-80
2021/07/09 02:18:41;;;;;;;20.88;18.27;;;23.00;99.90;;;;;;5014171;28;20558;-80
2021/07/09 02:21:08;;;;;;;21.13;18.00;;;22.90;99.90;;;;;;5013795;28;20046;-80
2021/07/09 02:23:34;;;;;;;22.02;17.35;;;23.00;99.90;;;;;;4996506;28;20080;-80
2021/07/09 02:25:59;;;;;;;21.35;17.98;;;22.90;99.90;;;;;;5014179;28;20032;-79
2021/07/09 02:28:25;;;;;;;24.50;17.33;;;22.90;99.90;;;;;;5013529;28;20038;-79
2021/07/09 02:30:50;;;;;;;20.27;16.70;;;23.00;99.90;;;;;;5012763;28;20064;-80
2021/07/09 02:33:16;;;;;;;19.23;16.67;;;22.90;99.90;;;;;;5022570;28;20034;-80
2021/07/09 02:35:42;;;;;;;20.70;17.08;;;23.00;99.90;;;;;;5016027;28;20021;-80
2021/07/09 02:38:08;;;;;;;19.85;17.42;;;23.00;99.90;;;;;;5015917;28;20498;-81
2021/07/09 02:40:35;;;;;;;20.38;16.35;;;23.00;99.90;;;;;;5015766;28;20356;-80
2021/07/09 02:43:04;;;;;;;21.23;17.85;;;23.10;99.90;;;;;;5033570;28;20022;-80
2021/07/09 02:45:29;;;;;;;18.73;16.38;;;23.10;99.90;;;;;;5016001;28;20026;-80
2021/07/09 02:47:56;;;;;;;19.08;17.02;;;23.10;99.90;;;;;;5015760;28;20022;-80
2021/07/09 02:50:23;;;;;;;17.00;15.00;;;23.10;99.90;;;;;;5015094;28;20021;-80
2021/07/09 02:52:50;;;;;;;19.20;16.77;;;23.00;99.90;;;;;;5033583;28;20479;-80
2021/07/09 02:55:17;;;;;;;20.38;15.88;;;23.00;99.90;;;;;;5031048;28;20021;-80
2021/07/09 02:57:43;;;;;;;18.38;16.23;;;23.00;99.90;;;;;;5032444;28;20052;-80
2021/07/09 03:00:15;;;;;;;20.42;16.05;;;23.00;99.90;;;;;;5015383;28;20033;-80
2021/07/09 03:02:41;;;;;;;22.63;16.00;;;23.10;99.90;;;;;;5029044;28;20033;-80
2021/07/09 03:05:08;;;;;;;17.30;14.85;;;23.10;99.90;;;;;;5013394;28;20029;-80
2021/07/09 03:07:34;;;;;;;17.70;15.35;;;23.10;99.90;;;;;;5013268;28;20431;-80
2021/07/09 03:10:00;;;;;;;19.90;16.65;;;23.10;99.90;;;;;;5009159;28;20128;-80
2021/07/09 03:12:26;;;;;;;18.30;15.07;;;23.10;99.90;;;;;;5026653;28;20041;-80
2021/07/09 03:14:52;;;;;;;17.40;15.55;;;23.10;99.90;;;;;;5013209;28;20489;-81
2021/07/09 03:17:17;;;;;;;16.90;15.07;;;23.20;99.90;;;;;;5013239;28;20116;-81
2021/07/09 03:19:43;;;;;;;21.88;15.90;;;23.20;99.90;;;;;;5031018;28;20040;-81
2021/07/09 03:22:09;;;;;;;16.55;14.50;;;23.20;99.90;;;;;;5013214;28;20036;-80
2021/07/09 03:24:35;;;;;;;19.00;15.18;;;23.20;99.90;;;;;;5032716;28;20022;-81
2021/07/09 03:27:00;;;;;;;19.08;15.10;;;23.20;99.90;;;;;;5032881;28;20045;-81
2021/07/09 03:29:26;;;;;;;16.67;14.35;;;23.20;99.90;;;;;;5015100;28;20026;-81
2021/07/09 03:31:52;;;;;;;17.20;15.25;;;23.20;99.90;;;;;;5032890;28;20045;-80
2021/07/09 03:34:17;;;;;;;17.58;14.50;;;23.20;99.90;;;;;;4995461;28;20030;-80
2021/07/09 03:36:43;;;;;;;29.58;17.02;;;23.20;99.90;;;;;;5013152;28;20486;-81
2021/07/09 03:39:14;;;;;;;16.38;14.68;;;23.20;99.90;;;;;;4995184;28;20473;-81
2021/07/09 03:41:40;;;;;;;19.05;15.02;;;23.20;99.90;;;;;;5013232;28;20164;-80
2021/07/09 03:44:08;;;;;;;19.40;15.75;;;23.10;99.90;;;;;;4995320;28;20353;-80
2021/07/09 03:46:37;;;;;;;18.73;14.90;;;23.00;99.90;;;;;;5012673;28;20108;-80
2021/07/09 03:49:03;;;;;;;18.77;16.73;;;23.00;99.90;;;;;;5012040;28;20026;-80
2021/07/09 03:51:29;;;;;;;17.25;15.18;;;23.00;99.90;;;;;;5012435;28;20499;-80
2021/07/09 03:53:56;;;;;;;18.20;16.17;;;23.00;99.90;;;;;;5012469;28;20030;-80
2021/07/09 03:56:22;;;;;;;20.05;15.85;;;23.00;99.90;;;;;;4993200;28;20030;-80
2021/07/09 03:58:48;;;;;;;17.67;15.77;;;23.00;99.90;;;;;;4994591;28;20060;-80
2021/07/09 04:01:15;;;;;;;18.25;15.82;;;23.10;99.90;;;;;;5012766;28;20072;-80
2021/07/09 04:03:40;;;;;;;17.55;15.60;;;23.00;99.90;;;;;;4995475;28;20036;-80
2021/07/09 04:06:06;;;;;;;16.88;15.05;;;23.10;99.90;;;;;;5012725;28;20033;-80
2021/07/09 04:08:31;;;;;;;18.90;15.10;;;23.20;99.90;;;;;;5012799;28;20058;-80
2021/07/09 04:10:57;;;;;;;18.20;14.82;;;23.20;99.90;;;;;;5012936;28;20030;-80
2021/07/09 04:13:23;;;;;;;17.55;14.82;;;23.30;99.90;;;;;;4994674;28;20022;-79
2021/07/09 04:15:48;;;;;;;16.73;14.70;;;23.30;99.90;;;;;;4993094;28;20396;-80
2021/07/09 04:18:14;;;;;;;18.65;14.73;;;23.30;99.90;;;;;;4992863;28;20546;-79
2021/07/09 04:20:39;;;;;;;18.30;14.82;;;23.40;99.90;;;;;;5014587;28;20029;-80
2021/07/09 04:23:05;;;;;;;20.70;14.63;;;23.30;99.90;;;;;;5016463;28;20490;-80
2021/07/09 04:25:31;;;;;;;20.45;14.85;;;23.40;99.90;;;;;;5016356;28;20527;-79
2021/07/09 04:27:56;;;;;;;17.50;14.13;;;23.40;99.90;;;;;;4999070;28;20548;-80
2021/07/09 04:30:22;;;;;;;20.10;14.65;;;23.40;99.90;;;;;;4998475;28;20472;-79
2021/07/09 04:32:48;;;;;;;17.90;13.50;;;23.50;99.90;;;;;;5007517;28;20022;-80
2021/07/09 04:35:13;;;;;;;15.77;14.00;;;23.50;99.90;;;;;;5035824;28;20034;-80
2021/07/09 04:37:40;;;;;;;15.82;13.48;;;23.50;99.90;;;;;;5017030;28;20032;-80
2021/07/09 04:40:07;;;;;;;15.43;13.45;;;23.50;99.90;;;;;;5034962;28;20037;-80
2021/07/09 04:42:32;;;;;;;14.88;13.07;;;23.50;99.90;;;;;;5017440;28;20092;-80
2021/07/09 04:44:58;;;;;;;14.85;13.15;;;23.60;99.90;;;;;;5033770;28;20147;-81
2021/07/09 04:47:24;;;;;;;16.33;13.77;;;23.60;99.90;;;;;;5035000;28;20111;-80
2021/07/09 04:49:49;;;;;;;31.00;14.63;;;23.70;99.90;;;;;;5034187;28;20116;-80
2021/07/09 04:52:15;;;;;;;14.95;12.48;;;23.70;99.90;;;;;;5033418;28;20075;-81
2021/07/09 04:54:41;;;;;;;17.73;13.75;;;23.90;99.90;;;;;;4999622;28;20038;-80
2021/07/09 04:57:07;;;;;;;14.52;13.00;;;24.00;99.90;;;;;;5013685;28;20097;-80
2021/07/09 04:59:32;;;;;;;15.55;13.32;;;24.00;99.90;;;;;;4995572;28;20108;-80
2021/07/09 05:01:58;;;;;;;16.58;13.68;;;24.00;99.90;;;;;;4996177;28;20025;-80
2021/07/09 05:04:23;;;;;;;15.73;13.90;;;24.00;99.90;;;;;;4996690;28;20022;-80
2021/07/09 05:06:49;;;;;;;17.65;13.27;;;23.90;99.90;;;;;;5014897;28;20033;-80
2021/07/09 05:09:15;;;;;;;17.85;13.38;;;23.90;99.90;;;;;;4997358;28;20022;-80
2021/07/09 05:11:40;;;;;;;16.52;13.90;;;23.80;99.90;;;;;;5013798;28;20124;-80
2021/07/09 05:14:06;;;;;;;20.15;14.60;;;23.70;99.90;;;;;;5013943;28;20380;-80
2021/07/09 05:16:35;;;;;;;15.52;13.63;;;23.70;99.90;;;;;;4997574;28;20028;-81
2021/07/09 05:19:03;;;;;;;17.63;14.85;;;23.80;99.90;;;;;;4995704;28;20563;-80
2021/07/09 05:21:28;;;;;;;17.27;15.13;;;23.90;99.90;;;;;;4995534;28;20471;-80
2021/07/09 05:23:55;;;;;;;17.77;14.18;;;24.10;99.90;;;;;;5014614;28;20121;-80
2021/07/09 05:26:20;;;;;;;19.00;14.77;;;24.30;99.90;;;;;;5014982;28;20472;-80
2021/07/09 05:28:46;;;;;;;15.85;13.50;;;24.30;99.90;;;;;;5013542;28;20026;-80
2021/07/09 05:31:12;;;;;;;18.30;14.20;;;24.40;99.90;;;;;;4994877;28;20068;-80
2021/07/09 05:33:38;;;;;;;15.73;14.00;;;24.50;99.90;;;;;;5010774;28;20018;-81
2021/07/09 05:36:04;;;;;;;15.48;13.73;;;24.70;99.90;;;;;;4996328;28;20494;-80
2021/07/09 05:38:29;;;;;;;15.80;13.98;;;24.80;99.90;;;;;;5008736;28;20045;-81
2021/07/09 05:40:55;;;;;;;15.50;12.80;;;24.90;99.90;;;;;;5012570;28;20065;-81
2021/07/09 05:43:21;;;;;;;16.55;13.85;;;24.90;99.90;;;;;;4992152;28;20448;-81
2021/07/09 05:45:47;;;;;;;15.82;14.13;;;25.00;99.90;;;;;;4996167;28;20021;-80
2021/07/09 05:48:13;;;;;;;16.70;13.63;;;25.20;99.90;;;;;;4994454;28;20044;-79
2021/07/09 05:50:39;;;;;;;15.82;13.77;;;25.30;99.90;;;;;;4992747;28;20491;-79
2021/07/09 05:53:05;;;;;;;15.25;13.55;;;25.50;98.60;;;;;;5014376;28;20679;-78
2021/07/09 05:55:30;;;;;;;14.65;13.15;;;25.70;94.60;;;;;;5012510;28;20125;-80
2021/07/09 05:57:56;;;;;;;14.55;12.55;;;26.00;95.60;;;;;;5011464;28;20029;-79
2021/07/09 06:00:22;;;;;;;25.30;15.07;;;26.10;95.60;;;;;;5011654;28;20305;-79
2021/07/09 06:02:47;;;;;;;15.65;13.90;;;26.20;94.80;;;;;;4994135;28;20387;-79
2021/07/09 06:05:13;;;;;;;14.60;13.02;;;26.20;92.10;;;;;;5013412;28;20026;-79
2021/07/09 06:07:40;;;;;;;19.13;14.07;;;26.10;93.20;;;;;;5013551;28;20030;-79
2021/07/09 06:10:06;;;;;;;16.90;14.02;;;26.10;94.00;;;;;;4995166;28;20018;-79
2021/07/09 06:12:32;;;;;;;18.75;16.58;;;26.00;94.40;;;;;;5012952;28;20022;-79
2021/07/09 06:14:58;;;;;;;19.10;17.05;;;25.60;95.00;;;;;;5013167;28;20472;-79
2021/07/09 06:17:23;;;;;;;19.65;16.52;;;25.50;95.70;;;;;;4996242;28;20044;-79
2021/07/09 06:19:49;;;;;;;20.98;17.20;;;25.50;96.90;;;;;;5014176;28;20042;-79
2021/07/09 06:22:15;;;;;;;21.73;18.30;;;25.40;97.30;;;;;;4996600;28;20033;-79
2021/07/09 06:24:41;;;;;;;19.33;16.80;;;25.20;95.70;;;;;;5015170;28;20506;-79
2021/07/09 06:27:07;;;;;;;20.23;17.33;;;25.30;98.80;;;;;;5013730;28;20083;-79
2021/07/09 06:29:34;;;;;;;19.90;17.95;;;25.50;97.00;;;;;;5012523;28;20018;-79
2021/07/09 06:31:59;;;;;;;22.95;18.55;;;25.50;93.80;;;;;;5012655;28;20037;-79
2021/07/09 06:34:25;;;;;;;24.83;18.08;;;25.50;91.10;;;;;;5012329;28;20022;-79
2021/07/09 06:36:51;;;;;;;19.77;17.45;;;25.60;93.00;;;;;;4994977;28;20021;-79
2021/07/09 06:39:16;;;;;;;19.92;17.38;;;25.60;90.80;;;;;;5007766;28;20034;-79
2021/07/09 06:41:42;;;;;;;19.98;17.83;;;25.60;89.60;;;;;;5010373;28;21070;-80
2021/07/09 06:44:07;;;;;;;21.90;18.15;;;25.60;89.80;;;;;;4990315;28;20014;-79
2021/07/09 06:46:33;;;;;;;19.52;16.70;;;25.60;87.90;;;;;;5009940;28;21012;-81
2021/07/09 06:48:59;;;;;;;20.33;16.42;;;25.90;87.10;;;;;;4992897;28;20048;-79
2021/07/09 06:51:25;;;;;;;20.27;17.13;;;25.90;85.70;;;;;;4991990;28;20495;-80
2021/07/09 06:53:50;;;;;;;23.20;16.73;;;26.00;84.90;;;;;;5002506;28;20049;-78
2021/07/09 06:56:16;;;;;;;19.88;16.63;;;26.20;85.90;;;;;;5009404;28;20034;-80
2021/07/09 06:58:42;;;;;;;20.13;17.92;;;26.40;84.90;;;;;;5010384;28;20050;-79
2021/07/09 07:01:09;;;;;;;24.25;16.88;;;26.30;81.80;;;;;;4989972;28;20072;-79
2021/07/09 07:03:35;;;;;;;21.08;17.90;;;26.20;85.30;;;;;;5009150;28;20165;-79
2021/07/09 07:06:00;;;;;;;21.27;18.42;;;26.20;85.80;;;;;;5010239;28;20105;-80
2021/07/09 07:08:26;;;;;;;21.70;18.23;;;26.30;84.60;;;;;;4989962;28;20076;-80
2021/07/09 07:10:54;;;;;;;27.65;22.13;;;26.50;85.10;;;;;;4992655;28;20148;-80
2021/07/09 07:13:24;;;;;;;27.13;20.10;;;26.80;82.30;;;;;;5011364;28;20045;-80
2021/07/09 07:15:50;;;;;;;24.75;18.67;;;26.80;84.20;;;;;;5019005;28;20048;-80
2021/07/09 07:18:16;;;;;;;22.55;17.35;;;26.70;84.80;;;;;;5001326;28;20033;-80
2021/07/09 07:20:46;;;;;;;19.70;16.92;;;26.90;81.80;;;;;;5011688;28;20030;-80
2021/07/09 07:23:16;;;;;;;20.17;16.17;;;27.00;81.40;;;;;;5009175;28;20037;-81
2021/07/09 07:25:43;;;;;;;19.65;17.08;;;27.20;79.60;;;;;;5011185;28;20121;-81
2021/07/09 07:28:09;;;;;;;18.27;16.20;;;27.40;79.20;;;;;;5010642;28;20492;-81
2021/07/09 07:30:35;;;;;;;17.58;15.73;;;27.50;78.20;;;;;;4992091;28;20036;-79
2021/07/09 07:33:02;;;;;;;21.95;17.80;;;27.40;78.30;;;;;;5011092;28;20039;-80
2021/07/09 07:35:30;;;;;;;22.05;17.25;;;27.40;77.60;;;;;;4992760;28;20018;-80
2021/07/09 07:37:56;;;;;;;20.30;17.05;;;27.10;80.30;;;;;;5005733;28;20038;-80
2021/07/09 07:40:22;;;;;;;18.45;16.55;;;27.30;78.80;;;;;;5009129;28;20034;-80
2021/07/09 07:42:48;;;;;;;18.40;16.10;;;27.30;79.00;;;;;;5009872;28;20038;-79
2021/07/09 07:45:14;;;;;;;20.77;16.38;;;27.40;78.00;;;;;;4991577;28;20643;-82
2021/07/09 07:47:39;;;;;;;19.45;16.90;;;27.40;77.00;;;;;;4992276;28;20030;-82
2021/07/09 07:50:06;;;;;;;18.27;16.58;;;27.60;76.70;;;;;;5007407;28;20422;-82
2021/07/09 07:52:32;;;;;;;18.30;16.20;;;27.70;73.50;;;;;;4992898;28;20049;-82
2021/07/09 07:54:58;;;;;;;18.02;16.13;;;27.80;74.70;;;;;;5010873;28;20089;-82
2021/07/09 07:57:23;;;;;;;17.95;16.15;;;28.00;75.90;;;;;;5012783;28;20389;-82
2021/07/09 07:59:49;;;;;;;20.20;16.42;;;28.10;75.60;;;;;;4996082;28;20064;-82
2021/07/09 08:02:15;;;;;;;20.10;16.45;;;28.20;74.00;;;;;;5012798;28;20533;-82
2021/07/09 08:04:41;;;;;;;18.75;16.77;;;28.40;75.20;;;;;;4996210;28;20113;-81
2021/07/09 08:07:10;;;;;;;18.35;16.52;;;28.50;75.80;;;;;;4995533;28;20464;-81
2021/07/09 08:09:36;;;;;;;23.33;17.88;;;28.50;74.30;;;;;;5013205;28;20057;-81
2021/07/09 08:12:02;;;;;;;24.40;16.67;;;28.40;74.80;;;;;;4995962;28;20464;-81
2021/07/09 08:14:28;;;;;;;18.63;16.73;;;28.30;75.00;;;;;;5012690;28;20034;-81
2021/07/09 08:16:54;;;;;;;20.30;16.77;;;28.50;75.70;;;;;;4996184;28;20154;-80
2021/07/09 08:19:20;;;;;;;18.02;16.23;;;28.60;74.90;;;;;;5012155;28;20567;-81
2021/07/09 08:21:46;;;;;;;18.80;16.73;;;28.40;73.50;;;;;;4992808;28;20088;-81
2021/07/09 08:24:16;;;;;;;19.35;17.40;;;28.40;74.30;;;;;;5012743;28;20041;-80
2021/07/09 08:26:42;;;;;;;18.83;16.60;;;28.50;71.00;;;;;;4995586;28;20026;-80
2021/07/09 08:29:08;;;;;;;17.73;15.90;;;28.40;69.60;;;;;;5012985;28;20045;-80
2021/07/09 08:31:34;;;;;;;18.85;16.85;;;28.70;69.40;;;;;;5013738;28;20045;-80
2021/07/09 08:34:00;;;;;;;18.83;15.75;;;28.80;70.20;;;;;;5013074;28;20052;-81
2021/07/09 08:36:25;;;;;;;18.33;15.68;;;28.70;70.60;;;;;;5024549;28;20036;-80
2021/07/09 08:38:52;;;;;;;19.55;16.27;;;28.70;71.90;;;;;;5017377;28;20050;-81
2021/07/09 08:41:18;;;;;;;16.65;14.95;;;28.50;74.30;;;;;;5022477;28;20014;-81
2021/07/09 08:43:44;;;;;;;21.52;16.27;;;28.70;74.30;;;;;;5005400;28;20490;-81
2021/07/09 08:46:10;;;;;;;18.73;15.43;;;28.60;73.80;;;;;;4998546;28;20022;-80
2021/07/09 08:48:36;;;;;;;16.75;15.10;;;28.70;72.00;;;;;;5015956;28;20044;-80
2021/07/09 08:51:03;;;;;;;17.63;15.93;;;28.90;69.90;;;;;;4996270;28;20112;-81
2021/07/09 08:53:29;;;;;;;16.95;15.07;;;29.10;69.70;;;;;;4998177;28;20400;-82
2021/07/09 08:55:54;;;;;;;17.83;16.02;;;29.20;70.00;;;;;;5018544;28;20022;-81
2021/07/09 08:58:20;;;;;;;16.73;15.02;;;29.20;70.60;;;;;;5002287;28;20041;-81
2021/07/09 09:00:46;;;;;;;16.02;14.35;;;29.20;69.10;;;;;;5006747;28;20037;-80
2021/07/09 09:03:18;;;;;;;17.50;14.20;;;29.40;70.30;;;;;;5012342;28;20076;-79
2021/07/09 09:05:44;;;;;;;17.17;15.35;;;29.40;67.00;;;;;;5033524;28;20093;-80
2021/07/09 09:08:13;;;;;;;16.55;14.85;;;29.50;68.00;;;;;;5033425;28;20025;-80
2021/07/09 09:10:39;;;;;;;16.63;14.93;;;29.60;68.50;;;;;;5033625;28;20017;-80
2021/07/09 09:13:07;;;;;;;19.77;14.63;;;29.50;68.30;;;;;;5033556;28;20037;-80
2021/07/09 09:15:35;;;;;;;16.67;15.02;;;29.70;67.90;;;;;;5015044;28;20021;-80
2021/07/09 09:18:02;;;;;;;16.23;14.52;;;29.70;68.50;;;;;;4999381;28;20017;-80
2021/07/09 09:20:29;;;;;;;15.75;14.23;;;29.60;67.40;;;;;;5010260;28;20029;-81
2021/07/09 09:22:57;;;;;;;18.90;15.10;;;29.50;66.20;;;;;;4993570;28;20018;-80
2021/07/09 09:25:25;;;;;;;17.42;14.63;;;29.40;67.20;;;;;;4989375;28;20046;-81
2021/07/09 09:28:07;;;;;;;17.75;14.50;;;29.30;67.80;;;;;;4993277;28;20022;-80
2021/07/09 09:30:36;;;;;;;17.52;13.82;;;29.30;69.70;;;;;;4991443;28;20018;-80
2021/07/09 09:33:04;;;;;;;16.52;14.80;;;29.20;69.60;;;;;;5011817;28;20026;-81
2021/07/09 09:35:37;;;;;;;16.90;14.48;;;29.20;70.20;;;;;;5014030;28;20022;-80
2021/07/09 09:38:05;;;;;;;15.73;14.23;;;29.30;70.00;;;;;;5008305;28;20018;-81
2021/07/09 09:40:33;;;;;;;14.90;13.32;;;29.30;68.90;;;;;;4994042;28;20517;-81
2021/07/09 09:43:15;;;;;;;15.52;13.77;;;29.40;66.70;;;;;;5013250;28;20022;-81
2021/07/09 09:45:41;;;;;;;14.63;13.13;;;29.30;66.20;;;;;;5013414;28;20022;-81
2021/07/09 09:48:14;;;;;;;14.75;13.20;;;29.30;67.30;;;;;;4995495;28;20022;-82
2021/07/09 09:50:49;;;;;;;14.27;12.85;;;29.30;68.60;;;;;;5012696;28;20068;-81
2021/07/09 09:53:15;;;;;;;15.07;13.52;;;29.30;68.80;;;;;;5009538;28;20345;-81
2021/07/09 09:55:42;;;;;;;16.73;14.98;;;29.20;70.90;;;;;;4994921;28;20028;-82
2021/07/09 09:58:13;;;;;;;17.83;14.40;;;29.10;70.10;;;;;;4995098;28;20025;-82
2021/07/09 10:00:44;;;;;;;15.83;14.17;;;28.90;71.00;;;;;;4995327;28;20029;-82
2021/07/09 10:03:10;;;;;;;17.23;13.45;;;29.00;73.10;;;;;;4994495;28;20483;-80
2021/07/09 10:05:42;;;;;;;17.83;14.43;;;28.90;72.70;;;;;;5012521;28;20057;-80
2021/07/09 10:08:13;;;;;;;18.27;15.65;;;28.90;73.60;;;;;;5012671;28;20349;-80
2021/07/09 10:10:43;;;;;;;16.67;14.77;;;28.70;73.70;;;;;;5012785;28;20108;-80
2021/07/09 10:13:13;;;;;;;16.88;14.30;;;28.70;73.40;;;;;;4978686;28;20029;-80
2021/07/09 10:15:40;;;;;;;18.50;15.50;;;28.80;74.30;;;;;;5012733;28;20049;-80
2021/07/09 10:18:11;;;;;;;15.93;13.80;;;28.70;73.70;;;;;;4994654;28;20014;-76
2021/07/09 10:20:36;;;;;;;16.35;14.65;;;28.80;75.00;;;;;;5011937;28;20034;-78
2021/07/09 10:23:02;;;;;;;16.45;13.85;;;29.10;73.40;;;;;;4994871;28;20029;-79
2021/07/09 10:25:29;;;;;;;17.33;14.85;;;29.30;71.50;;;;;;4993175;28;20073;-79
2021/07/09 10:27:56;;;;;;;17.17;14.57;;;29.30;72.70;;;;;;5012648;28;20566;-80
2021/07/09 10:30:22;;;;;;;15.68;13.82;;;29.50;72.00;;;;;;4993996;28;20116;-79
2021/07/09 10:32:49;;;;;;;16.48;14.77;;;29.50;71.80;;;;;;4994547;28;20113;-79
2021/07/09 10:35:35;;;;;;;19.60;17.42;;;29.60;71.50;;;;;;5010996;28;20040;-80
2021/07/09 10:38:19;;;;;;;18.65;16.33;;;29.40;72.80;;;;;;5007204;28;20026;-78
2021/07/09 10:40:45;;;;;;;18.40;15.40;;;29.20;73.30;;;;;;5018630;28;20069;-79
2021/07/09 10:43:13;;;;;;;16.38;14.68;;;29.10;74.20;;;;;;5009414;28;20034;-79
2021/07/09 10:45:40;;;;;;;17.08;15.15;;;29.00;73.50;;;;;;5013009;28;20062;-79
2021/07/09 10:48:14;;;;;;;16.92;15.32;;;28.90;73.70;;;;;;5025880;28;20025;-80
2021/07/09 10:50:45;;;;;;;17.50;14.82;;;28.90;75.90;;;;;;5011268;28;20014;-80
2021/07/09 10:53:11;;;;;;;17.77;14.80;;;28.70;77.50;;;;;;4993871;28;20025;-80
2021/07/09 10:55:45;;;;;;;20.10;14.82;;;28.60;76.80;;;;;;5011841;28;20391;-76
2021/07/09 10:58:47;;;;;;;17.45;15.57;;;28.50;77.60;;;;;;5010902;28;20018;-77
2021/07/09 11:01:28;;;;;;;17.52;14.65;;;28.20;81.70;;;;;;4970356;28;20507;-77
2021/07/09 11:03:54;;;;;;;17.88;13.57;;;27.30;88.20;;;;;;5010621;28;20568;-77
2021/07/09 11:06:22;;;;;;;27.48;14.50;;;27.00;87.10;;;;;;4992654;28;20108;-76
2021/07/09 11:08:57;;;;;;;16.13;11.77;;;26.70;89.00;;;;;;5010971;28;20045;-77
2021/07/09 11:11:49;;;;;;;17.73;12.98;;;26.40;87.00;;;;;;5005803;28;20376;-77
2021/07/09 11:14:17;;;;;;;20.23;12.98;;;26.10;92.10;;;;;;5009110;28;20034;-78
2021/07/09 11:16:59;;;;;;;16.80;13.75;;;26.00;96.50;;;;;;4992917;28;20149;-77
2021/07/09 11:19:30;;;;;;;19.85;14.15;;;25.90;97.80;;;;;;5007216;28;20038;-77
2021/07/09 11:21:57;;;;;;;21.40;14.68;;;25.80;99.90;;;;;;4989690;28;20025;-77
2021/07/09 11:24:29;;;;;;;20.02;13.80;;;25.70;99.90;;;;;;5008941;28;20511;-76
2021/07/09 11:27:05;;;;;;;16.08;12.80;;;25.30;99.90;;;;;;4992546;28;20410;-77
2021/07/09 11:29:35;;;;;;;20.40;13.98;;;25.00;99.90;;;;;;5008154;28;20103;-77
2021/07/09 11:32:09;;;;;;;19.77;15.60;;;25.00;99.90;;;;;;5007912;28;20030;-77
2021/07/09 11:34:39;;;;;;;21.55;14.68;;;24.90;99.90;;;;;;5008855;28;20038;-77
2021/07/09 11:37:07;;;;;;;16.63;13.07;;;24.80;99.90;;;;;;4994847;28;20562;-77
2021/07/09 11:39:35;;;;;;;14.60;12.68;;;24.60;99.90;;;;;;4986534;28;20050;-77
2021/07/09 11:42:08;;;;;;;15.02;12.80;;;24.50;99.90;;;;;;5010268;28;20077;-77
2021/07/09 11:44:41;;;;;;;15.75;13.40;;;24.60;99.90;;;;;;5009209;28;20030;-78
2021/07/09 11:47:15;;;;;;;16.05;13.23;;;24.70;99.90;;;;;;4992260;28;20024;-77
2021/07/09 11:49:46;;;;;;;18.35;14.52;;;24.50;99.90;;;;;;4989395;28;20030;-77
2021/07/09 11:52:13;;;;;;;16.02;13.05;;;24.60;99.90;;;;;;5009134;28;20036;-76
2021/07/09 11:54:46;;;;;;;15.18;12.93;;;24.60;99.90;;;;;;4991956;28;20058;-77
2021/07/09 11:57:18;;;;;;;15.38;13.13;;;24.70;99.90;;;;;;5008871;28;20028;-77
2021/07/09 11:59:44;;;;;;;;;;;24.70;99.90;;;;;;4992064;28;20041;-77
2021/07/09 12:02:18;;;;;;;15.23;10.73;;;24.70;99.90;;;;;;5008783;28;19909;-77
2021/07/09 12:04:45;;;;;;;13.68;11.15;;;24.50;99.90;;;;;;4991187;28;20116;-77
2021/07/09 12:07:18;;;;;;;13.55;11.07;;;24.30;99.90;;;;;;5008396;28;20034;-78
2021/07/09 12:09:49;;;;;;;14.70;11.85;;;24.30;99.90;;;;;;5007639;28;20483;-77
2021/07/09 12:12:16;;;;;;;13.00;11.02;;;24.30;99.90;;;;;;4991509;28;20022;-77
2021/07/09 12:15:00;;;;;;;14.23;11.57;;;24.20;99.90;;;;;;4992079;28;20022;-77
2021/07/09 12:17:31;;;;;;;14.23;11.65;;;24.20;99.90;;;;;;5005810;28;20077;-77
2021/07/09 12:20:06;;;;;;;14.52;11.65;;;24.30;99.90;;;;;;5009100;28;20069;-76
2021/07/09 12:22:37;;;;;;;14.80;12.93;;;24.30;99.90;;;;;;5008806;28;20061;-75
2021/07/09 12:25:10;;;;;;;15.63;12.45;;;24.20;99.90;;;;;;4992435;28;20037;-77
2021/07/09 12:27:37;;;;;;;18.50;14.60;;;24.20;99.90;;;;;;4990769;28;20018;-78
2021/07/09 12:30:12;;;;;;;21.83;15.27;;;24.00;99.90;;;;;;4991481;28;20799;-77